createdAt,value
2022-12-11T00:01:43.052Z,21.77
2022-12-11T00:04:09.733Z,19.87
2022-12-11T00:06:36.366Z,16.50
2022-12-11T00:09:03.123Z,17.10
2022-12-11T00:11:29.792Z,18.43
2022-12-11T00:13:56.471Z,17.80
2022-12-11T00:16:26.852Z,18.53
2022-12-11T00:18:54.527Z,16.27
2022-12-11T00:21:21.173Z,16.40
2022-12-11T00:23:47.835Z,19.03
2022-12-11T00:26:16.028Z,16.40
2022-12-11T00:28:43.830Z,16.20
2022-12-11T00:31:14.786Z,15.73
2022-12-11T00:33:42.431Z,15.53
2022-12-11T00:36:17.774Z,17.30
2022-12-11T00:38:44.664Z,14.53
2022-12-11T00:41:12.501Z,18.03
2022-12-11T00:43:39.185Z,16.63
2022-12-11T00:46:06.011Z,19.23
2022-12-11T00:48:32.870Z,19.43
2022-12-11T00:50:59.804Z,19.43
2022-12-11T00:53:26.532Z,20.30
2022-12-11T00:55:53.210Z,17.27
2022-12-11T00:58:20.145Z,18.17
2022-12-11T01:00:48.378Z,17.30
2022-12-11T01:03:16.110Z,15.60
2022-12-11T01:05:54.212Z,15.60
2022-12-11T01:08:21.464Z,15.77
2022-12-11T01:10:48.300Z,15.87
2022-12-11T01:13:15.463Z,17.50
2022-12-11T01:15:45.233Z,16.13
2022-12-11T01:18:14.440Z,18.07
2022-12-11T01:20:42.695Z,15.60
2022-12-11T01:23:13.038Z,18.27
2022-12-11T01:25:40.677Z,16.50
2022-12-11T01:28:08.489Z,17.10
2022-12-11T01:30:35.934Z,18.20
2022-12-11T01:33:02.935Z,16.97
2022-12-11T01:35:29.591Z,15.87
2022-12-11T01:37:56.434Z,16.53
2022-12-11T01:40:23.194Z,16.90
2022-12-11T01:42:50.407Z,18.30
2022-12-11T01:45:32.153Z,14.80
2022-12-11T01:48:05.470Z,16.77
2022-12-11T01:50:36.282Z,15.50
2022-12-11T01:53:06.322Z,19.87
2022-12-11T01:55:33.452Z,15.70
2022-12-11T01:58:02.326Z,17.37
2022-12-11T02:00:28.979Z,16.00
2022-12-11T02:02:55.767Z,12.83
2022-12-11T02:05:22.422Z,13.70
2022-12-11T02:07:58.537Z,14.27
2022-12-11T02:10:34.667Z,13.33
2022-12-11T02:13:09.936Z,12.43
2022-12-11T02:15:51.667Z,14.60
2022-12-11T02:18:33.490Z,14.07
2022-12-11T02:21:24.885Z,13.90
2022-12-11T02:24:25.735Z,12.40
2022-12-11T02:27:08.910Z,13.53
2022-12-11T02:29:52.044Z,14.50
2022-12-11T02:32:29.620Z,14.20
2022-12-11T02:35:02.973Z,13.77
2022-12-11T02:37:32.148Z,13.37
2022-12-11T02:39:58.824Z,12.80
2022-12-11T02:42:30.856Z,13.43
2022-12-11T02:45:00.674Z,12.60
2022-12-11T02:47:30.558Z,11.63
2022-12-11T02:50:00.274Z,12.43
2022-12-11T02:52:29.974Z,12.60
2022-12-11T02:54:59.689Z,11.80
2022-12-11T02:57:38.444Z,12.43
2022-12-11T03:00:06.557Z,11.43
2022-12-11T03:02:33.251Z,12.83
2022-12-11T03:05:00.176Z,13.87
2022-12-11T03:07:32.853Z,13.20
2022-12-11T03:09:59.889Z,14.00
2022-12-11T03:12:32.780Z,11.47
2022-12-11T03:15:02.051Z,11.80
2022-12-11T03:17:37.601Z,11.23
2022-12-11T03:20:05.186Z,12.23
2022-12-11T03:22:42.786Z,10.30
2022-12-11T03:25:17.013Z,12.50
2022-12-11T03:27:57.128Z,9.30
2022-12-11T03:30:25.849Z,11.17
2022-12-11T03:33:01.238Z,10.70
2022-12-11T03:35:27.854Z,10.73
2022-12-11T03:37:56.704Z,9.80
2022-12-11T03:40:25.823Z,10.80
2022-12-11T03:42:55.942Z,11.73
2022-12-11T03:45:24.875Z,10.37
2022-12-11T03:47:53.626Z,9.73
2022-12-11T03:50:22.808Z,10.53
2022-12-11T03:52:51.097Z,11.83
2022-12-11T03:55:21.210Z,11.97
2022-12-11T03:57:48.621Z,11.47
2022-12-11T04:00:19.788Z,9.10
2022-12-11T04:03:12.717Z,11.90
2022-12-11T04:05:45.568Z,9.67
2022-12-11T04:08:12.677Z,10.13
2022-12-11T04:10:40.450Z,8.90
2022-12-11T04:13:07.995Z,8.93
2022-12-11T04:15:35.486Z,10.07
2022-12-11T04:18:21.066Z,10.17
2022-12-11T04:21:06.177Z,10.17
2022-12-11T04:23:51.592Z,9.80
2022-12-11T04:26:20.326Z,9.40
2022-12-11T04:28:47.966Z,10.13
2022-12-11T04:31:17.931Z,9.97
2022-12-11T04:33:44.723Z,9.23
2022-12-11T04:36:12.468Z,9.27
2022-12-11T04:38:39.192Z,11.27
2022-12-11T04:41:09.497Z,9.57
2022-12-11T04:43:36.528Z,9.57
2022-12-11T04:46:09.870Z,9.93
2022-12-11T04:48:37.391Z,9.90
2022-12-11T04:51:04.400Z,9.57
2022-12-11T04:53:32.442Z,10.87
2022-12-11T04:56:00.195Z,8.50
2022-12-11T04:58:27.333Z,9.30
2022-12-11T05:00:54.227Z,9.87
2022-12-11T05:03:20.855Z,8.77
2022-12-11T05:05:49.502Z,9.67
2022-12-11T05:08:20.177Z,8.07
2022-12-11T05:10:56.886Z,8.93
2022-12-11T05:13:23.526Z,7.87
2022-12-11T05:15:50.436Z,7.50
2022-12-11T05:18:17.105Z,8.97
2022-12-11T05:20:43.746Z,8.43
2022-12-11T05:23:10.358Z,8.57
2022-12-11T05:25:37.123Z,7.77
2022-12-11T05:28:03.813Z,8.40
2022-12-11T05:30:30.450Z,8.10
2022-12-11T05:32:57.213Z,9.30
2022-12-11T05:35:23.782Z,8.43
2022-12-11T05:37:50.377Z,7.20
2022-12-11T05:40:17.025Z,8.30
2022-12-11T05:42:43.726Z,8.53
2022-12-11T05:45:11.038Z,7.80
2022-12-11T05:47:37.770Z,8.10
2022-12-11T05:50:04.533Z,8.80
2022-12-11T05:52:31.960Z,7.90
2022-12-11T05:54:58.541Z,7.83
2022-12-11T05:57:25.156Z,7.80
2022-12-11T05:59:51.805Z,8.20
2022-12-11T06:02:18.672Z,8.57
2022-12-11T06:04:45.361Z,7.50
2022-12-11T06:07:12.135Z,7.10
2022-12-11T06:09:38.807Z,7.20
2022-12-11T06:12:05.521Z,7.47
2022-12-11T06:14:32.186Z,8.10
2022-12-11T06:16:58.797Z,8.03
2022-12-11T06:19:25.430Z,6.97
2022-12-11T06:21:52.036Z,6.60
2022-12-11T06:24:18.709Z,7.20
2022-12-11T06:26:45.372Z,7.23
2022-12-11T06:29:13.215Z,7.37
2022-12-11T06:31:40.420Z,7.93
2022-12-11T06:34:07.266Z,9.50
2022-12-11T06:36:33.945Z,8.17
2022-12-11T06:39:00.638Z,9.13
2022-12-11T06:41:27.328Z,8.93
2022-12-11T06:43:53.970Z,9.23
2022-12-11T06:46:21.276Z,9.30
2022-12-11T06:48:48.877Z,9.10
2022-12-11T06:51:18.347Z,9.57
2022-12-11T06:53:45.704Z,9.60
2022-12-11T06:56:15.270Z,8.27
2022-12-11T06:58:43.049Z,9.53
2022-12-11T07:01:17.496Z,9.87
2022-12-11T07:03:44.451Z,9.37
2022-12-11T07:06:11.168Z,10.63
2022-12-11T07:08:37.837Z,10.60
2022-12-11T07:11:09.614Z,10.03
2022-12-11T07:13:36.632Z,9.40
2022-12-11T07:16:04.759Z,10.13
2022-12-11T07:18:32.391Z,10.60
2022-12-11T07:21:00.452Z,11.70
2022-12-11T07:23:30.078Z,10.07
2022-12-11T07:25:57.800Z,10.40
2022-12-11T07:28:24.532Z,12.20
2022-12-11T07:30:51.198Z,12.43
2022-12-11T07:33:17.847Z,14.40
2022-12-11T07:35:44.590Z,11.90
2022-12-11T07:38:11.644Z,12.30
2022-12-11T07:40:38.287Z,12.00
2022-12-11T07:43:04.912Z,13.20
2022-12-11T07:45:31.961Z,11.87
2022-12-11T07:47:59.214Z,14.13
2022-12-11T07:50:25.821Z,14.30
2022-12-11T07:52:52.732Z,14.30
2022-12-11T07:55:19.362Z,12.17
2022-12-11T07:57:46.028Z,12.00
2022-12-11T08:00:13.001Z,12.30
2022-12-11T08:02:39.651Z,12.57
2022-12-11T08:05:07.067Z,11.93
2022-12-11T08:07:35.631Z,12.20
2022-12-11T08:10:03.171Z,12.40
2022-12-11T08:12:29.905Z,11.50
2022-12-11T08:14:56.536Z,16.00
2022-12-11T08:17:28.733Z,14.20
2022-12-11T08:19:56.871Z,14.80
2022-12-11T08:22:23.486Z,14.17
2022-12-11T08:24:50.107Z,11.00
2022-12-11T08:27:16.785Z,12.20
2022-12-11T08:29:43.447Z,14.70
2022-12-11T08:32:12.476Z,14.57
2022-12-11T08:34:39.600Z,14.37
2022-12-11T08:37:06.233Z,13.47
2022-12-11T08:39:32.822Z,11.77
2022-12-11T08:41:59.453Z,12.97
2022-12-11T08:44:27.193Z,13.70
2022-12-11T08:46:53.829Z,13.17
2022-12-11T08:49:20.500Z,11.47
2022-12-11T08:51:47.140Z,10.27
2022-12-11T08:54:13.778Z,13.30
2022-12-11T08:56:40.434Z,15.60
2022-12-11T08:59:07.427Z,14.53
2022-12-11T09:01:34.250Z,12.20
2022-12-11T09:04:00.933Z,13.57
2022-12-11T09:06:30.150Z,13.83
2022-12-11T09:08:59.917Z,14.30
2022-12-11T09:11:29.382Z,13.90
2022-12-11T09:13:56.115Z,13.00
2022-12-11T09:16:24.917Z,15.30
2022-12-11T09:18:53.522Z,14.87
2022-12-11T09:21:22.625Z,14.70
2022-12-11T09:23:52.361Z,13.00
2022-12-11T09:26:20.168Z,15.50
2022-12-11T09:28:47.485Z,13.90
2022-12-11T09:31:24.906Z,14.33
2022-12-11T09:33:55.109Z,11.13
2022-12-11T09:36:22.187Z,11.10
2022-12-11T09:38:49.041Z,11.17
2022-12-11T09:41:21.637Z,11.80
2022-12-11T09:44:20.794Z,10.83
2022-12-11T09:46:48.705Z,11.00
2022-12-11T09:49:39.489Z,12.10
2022-12-11T09:52:32.571Z,11.73
2022-12-11T09:55:03.955Z,9.80
2022-12-11T09:57:55.781Z,12.07
2022-12-11T10:00:59.536Z,10.20
2022-12-11T10:03:47.293Z,11.00
2022-12-11T10:06:33.200Z,11.77
2022-12-11T10:09:25.572Z,11.27
2022-12-11T10:12:17.162Z,11.47
2022-12-11T10:15:05.309Z,10.87
2022-12-11T10:17:36.922Z,10.40
2022-12-11T10:20:15.604Z,9.90
2022-12-11T10:22:42.778Z,9.57
2022-12-11T10:25:25.507Z,11.50
2022-12-11T10:27:52.974Z,11.90
2022-12-11T10:30:25.962Z,11.03
2022-12-11T10:33:09.168Z,10.53
2022-12-11T10:35:41.944Z,9.67
2022-12-11T10:38:23.981Z,11.37
2022-12-11T10:40:54.784Z,9.63
2022-12-11T10:43:35.803Z,10.37
2022-12-11T10:46:03.542Z,10.17
2022-12-11T10:48:30.237Z,10.27
2022-12-11T10:51:07.143Z,9.70
2022-12-11T10:53:38.873Z,10.13
2022-12-11T10:56:06.697Z,10.33
2022-12-11T10:58:37.450Z,9.10
2022-12-11T11:01:14.209Z,9.10
2022-12-11T11:04:04.835Z,10.00
2022-12-11T11:06:31.532Z,9.30
2022-12-11T11:09:00.494Z,8.70
2022-12-11T11:11:33.868Z,10.70
2022-12-11T11:14:22.821Z,8.53
2022-12-11T11:16:52.573Z,8.40
2022-12-11T11:19:29.359Z,9.40
2022-12-11T11:22:05.572Z,9.40
2022-12-11T11:24:41.602Z,10.10
2022-12-11T11:27:14.502Z,11.23
2022-12-11T11:29:42.726Z,10.27
2022-12-11T11:32:23.976Z,10.07
2022-12-11T11:34:50.650Z,9.03
2022-12-11T11:37:33.950Z,8.80
2022-12-11T11:40:13.886Z,9.30
2022-12-11T11:42:40.510Z,9.50
2022-12-11T11:45:16.956Z,10.50
2022-12-11T11:48:07.781Z,8.43
2022-12-11T11:50:41.046Z,7.73
2022-12-11T11:53:38.274Z,9.97
2022-12-11T11:56:17.879Z,7.73
2022-12-11T11:59:34.564Z,8.57
2022-12-11T12:02:01.238Z,8.57
2022-12-11T12:04:35.010Z,8.40
2022-12-11T12:07:20.406Z,7.80
2022-12-11T12:10:34.929Z,7.40
2022-12-11T12:13:23.817Z,7.83
2022-12-11T12:15:59.445Z,7.60
2022-12-11T12:18:58.403Z,7.47
2022-12-11T12:21:35.689Z,7.20
2022-12-11T12:24:20.573Z,6.60
2022-12-11T12:26:55.912Z,8.20
2022-12-11T12:29:53.518Z,7.70
2022-12-11T12:32:59.256Z,8.67
2022-12-11T12:35:36.627Z,9.00
2022-12-11T12:38:30.368Z,8.37
2022-12-11T12:41:20.530Z,10.37
2022-12-11T12:44:11.235Z,9.90
2022-12-11T12:46:40.906Z,7.93
2022-12-11T12:49:13.621Z,8.13
2022-12-11T12:51:43.628Z,8.50
2022-12-11T12:54:16.565Z,8.73
2022-12-11T12:56:45.244Z,7.10
2022-12-11T12:59:26.923Z,6.90
2022-12-11T13:01:57.379Z,10.60
2022-12-11T13:05:01.103Z,8.30
2022-12-11T13:07:28.552Z,6.97
2022-12-11T13:10:21.736Z,6.37
2022-12-11T13:12:48.555Z,5.33
2022-12-11T13:15:35.757Z,6.80
2022-12-11T13:18:34.948Z,7.03
2022-12-11T13:21:03.985Z,6.27
2022-12-11T13:23:35.269Z,9.13
2022-12-11T13:26:04.135Z,9.60
2022-12-11T13:28:33.666Z,8.27
2022-12-11T13:31:04.539Z,7.13
2022-12-11T13:33:32.554Z,9.80
2022-12-11T13:36:25.503Z,8.50
2022-12-11T13:38:56.957Z,7.27
2022-12-11T13:41:24.048Z,7.80
2022-12-11T13:43:52.437Z,5.30
2022-12-11T13:46:29.330Z,5.10
2022-12-11T13:49:01.034Z,5.93
2022-12-11T13:51:30.649Z,5.13
2022-12-11T13:54:06.343Z,5.90
2022-12-11T13:56:33.219Z,6.13
2022-12-11T13:58:59.848Z,7.90
2022-12-11T14:01:32.753Z,6.47
2022-12-11T14:04:12.516Z,6.40
2022-12-11T14:06:39.946Z,6.40
2022-12-11T14:09:08.289Z,7.60
2022-12-11T14:11:37.880Z,5.50
2022-12-11T14:14:17.983Z,5.50
2022-12-11T14:16:51.719Z,7.07
2022-12-11T14:19:21.038Z,5.80
2022-12-11T14:22:02.387Z,6.13
2022-12-11T14:24:30.267Z,7.10
2022-12-11T14:26:57.802Z,7.40
2022-12-11T14:29:25.776Z,6.20
2022-12-11T14:31:53.080Z,5.53
2022-12-11T14:34:26.505Z,8.10
2022-12-11T14:36:54.487Z,6.97
2022-12-11T14:39:28.600Z,5.60
2022-12-11T14:42:13.781Z,7.00
2022-12-11T14:44:49.226Z,7.67
2022-12-11T14:47:27.383Z,6.87
2022-12-11T14:49:59.198Z,7.67
2022-12-11T14:52:31.290Z,6.20
2022-12-11T14:55:09.185Z,6.30
2022-12-11T14:57:37.110Z,6.90
2022-12-11T15:00:05.551Z,6.60
2022-12-11T15:02:35.487Z,7.53
2022-12-11T15:05:12.278Z,6.80
2022-12-11T15:07:41.215Z,6.17
2022-12-11T15:10:20.986Z,6.90
2022-12-11T15:12:47.670Z,7.83
2022-12-11T15:15:18.212Z,5.73
2022-12-11T15:17:51.161Z,6.27
2022-12-11T15:20:26.855Z,5.97
2022-12-11T15:22:54.644Z,8.50
2022-12-11T15:25:27.151Z,8.10
2022-12-11T15:27:56.920Z,6.23
2022-12-11T15:30:26.943Z,7.50
2022-12-11T15:33:19.949Z,8.07
2022-12-11T15:36:24.424Z,6.87
2022-12-11T15:38:51.189Z,4.60
2022-12-11T15:41:21.508Z,7.57
2022-12-11T15:43:48.254Z,5.80
2022-12-11T15:46:15.001Z,7.53
2022-12-11T15:48:41.702Z,6.70
2022-12-11T15:51:09.757Z,7.00
2022-12-11T15:53:40.035Z,5.73
2022-12-11T15:56:07.256Z,7.03
2022-12-11T15:58:35.569Z,6.43
2022-12-11T16:01:02.425Z,6.93
2022-12-11T16:03:29.294Z,6.00
2022-12-11T16:05:56.036Z,6.10
2022-12-11T16:08:24.261Z,6.60
2022-12-11T16:10:54.099Z,6.73
2022-12-11T16:13:21.564Z,6.70
2022-12-11T16:15:50.635Z,6.03
2022-12-11T16:18:22.599Z,8.27
2022-12-11T16:20:51.296Z,7.87
2022-12-11T16:23:18.525Z,6.07
2022-12-11T16:25:46.812Z,6.33
2022-12-11T16:28:15.561Z,6.60
2022-12-11T16:30:43.703Z,7.83
2022-12-11T16:33:13.093Z,6.40
2022-12-11T16:35:42.090Z,6.77
2022-12-11T16:38:10.161Z,7.03
2022-12-11T16:40:37.822Z,6.57
2022-12-11T16:43:05.812Z,8.33
2022-12-11T16:45:32.730Z,6.50
2022-12-11T16:48:02.851Z,8.33
2022-12-11T16:50:29.462Z,8.57
2022-12-11T16:52:57.090Z,7.43
2022-12-11T16:55:23.874Z,8.80
2022-12-11T16:57:50.545Z,8.37
2022-12-11T17:00:17.517Z,12.50
2022-12-11T17:02:44.279Z,13.17
2022-12-11T17:05:11.544Z,9.60
2022-12-11T17:07:38.489Z,10.33
2022-12-11T17:10:05.506Z,9.47
2022-12-11T17:12:32.201Z,10.97
2022-12-11T17:14:58.955Z,8.60
2022-12-11T17:17:25.865Z,10.73
2022-12-11T17:19:52.509Z,10.23
2022-12-11T17:22:19.303Z,9.33
2022-12-11T17:24:45.995Z,10.47
2022-12-11T17:27:12.633Z,9.00
2022-12-11T17:29:39.875Z,9.77
2022-12-11T17:32:06.900Z,10.60
2022-12-11T17:34:38.063Z,9.20
2022-12-11T17:37:05.669Z,9.57
2022-12-11T17:39:32.376Z,8.80
2022-12-11T17:41:59.109Z,8.73
2022-12-11T17:44:26.901Z,7.83
2022-12-11T17:46:53.773Z,8.10
2022-12-11T17:49:20.586Z,7.00
2022-12-11T17:51:48.048Z,8.60
2022-12-11T17:54:15.119Z,6.70
2022-12-11T17:56:41.766Z,7.80
2022-12-11T17:59:08.433Z,9.10
2022-12-11T18:01:35.256Z,11.53
2022-12-11T18:04:02.434Z,9.13
2022-12-11T18:06:29.970Z,9.53
2022-12-11T18:08:57.485Z,7.60
2022-12-11T18:11:24.508Z,9.50
2022-12-11T18:13:52.532Z,8.60
2022-12-11T18:16:32.611Z,7.17
2022-12-11T18:18:59.599Z,8.47
2022-12-11T18:21:32.223Z,8.70
2022-12-11T18:23:59.431Z,8.83
2022-12-11T18:26:27.405Z,7.87
2022-12-11T18:28:54.230Z,7.53
2022-12-11T18:31:21.845Z,9.80
2022-12-11T18:33:48.900Z,7.40
2022-12-11T18:36:16.843Z,10.63
2022-12-11T18:38:43.762Z,8.87
2022-12-11T18:41:13.203Z,9.10
2022-12-11T18:43:40.903Z,8.30
2022-12-11T18:46:14.380Z,8.67
2022-12-11T18:48:42.828Z,7.47
2022-12-11T18:51:12.299Z,8.30
2022-12-11T18:53:43.802Z,9.50
2022-12-11T18:56:15.664Z,7.80
2022-12-11T18:58:42.924Z,8.60
2022-12-11T19:01:17.418Z,9.27
2022-12-11T19:03:44.500Z,9.57
2022-12-11T19:06:18.982Z,10.33
2022-12-11T19:08:46.327Z,8.83
2022-12-11T19:11:23.557Z,7.63
2022-12-11T19:13:51.576Z,7.70
2022-12-11T19:16:22.477Z,6.90
2022-12-11T19:18:50.317Z,4.77
2022-12-11T19:21:18.731Z,4.33
2022-12-11T19:23:46.386Z,3.67
2022-12-11T19:26:16.066Z,3.30
2022-12-11T19:28:43.137Z,4.47
2022-12-11T19:31:15.281Z,3.77
2022-12-11T19:33:43.347Z,5.10
2022-12-11T19:36:16.639Z,3.97
2022-12-11T19:38:45.252Z,4.63
2022-12-11T19:41:29.165Z,3.83
2022-12-11T19:43:57.513Z,4.63
2022-12-11T19:46:24.392Z,4.37
2022-12-11T19:48:55.850Z,4.57
2022-12-11T19:51:25.493Z,4.70
2022-12-11T19:53:52.326Z,6.17
2022-12-11T19:56:20.216Z,5.37
2022-12-11T19:58:47.622Z,6.17
2022-12-11T20:01:28.757Z,5.93
2022-12-11T20:03:58.428Z,5.90
2022-12-11T20:06:27.651Z,6.17
2022-12-11T20:08:54.377Z,5.83
2022-12-11T20:11:21.150Z,6.50
2022-12-11T20:13:48.556Z,5.83
2022-12-11T20:16:17.037Z,5.97
2022-12-11T20:18:44.418Z,5.80
2022-12-11T20:21:14.440Z,6.50
2022-12-11T20:23:41.554Z,6.87
2022-12-11T20:26:14.963Z,7.17
2022-12-11T20:28:42.755Z,6.47
2022-12-11T20:31:20.037Z,6.33
2022-12-11T20:33:49.304Z,5.80
2022-12-11T20:36:18.952Z,6.67
2022-12-11T20:38:46.226Z,7.33
2022-12-11T20:41:15.307Z,6.00
2022-12-11T20:43:42.516Z,6.53
2022-12-11T20:46:11.945Z,7.40
2022-12-11T20:48:40.386Z,7.60
2022-12-11T20:51:09.756Z,6.90
2022-12-11T20:53:42.657Z,8.10
2022-12-11T20:56:16.252Z,7.90
2022-12-11T20:58:43.627Z,9.10
2022-12-11T21:01:19.173Z,8.50
2022-12-11T21:03:46.542Z,8.27
2022-12-11T21:06:34.480Z,9.00
2022-12-11T21:09:04.346Z,11.03
2022-12-11T21:11:31.104Z,9.90
2022-12-11T21:13:58.148Z,10.63
2022-12-11T21:16:25.501Z,13.20
2022-12-11T21:18:53.478Z,11.60
2022-12-11T21:21:20.125Z,11.47
2022-12-11T21:23:46.861Z,13.80
2022-12-11T21:26:13.592Z,10.30
2022-12-11T21:28:40.499Z,10.53
2022-12-11T21:31:11.319Z,13.50
2022-12-11T21:33:38.015Z,10.90
2022-12-11T21:36:06.508Z,13.90
2022-12-11T21:38:33.638Z,9.53
2022-12-11T21:41:08.412Z,9.30
2022-12-11T21:43:35.113Z,10.07
2022-12-11T21:46:02.476Z,10.43
2022-12-11T21:48:29.506Z,12.87
2022-12-11T21:50:56.290Z,13.63
2022-12-11T21:53:23.057Z,12.00
2022-12-11T21:55:49.790Z,11.97
2022-12-11T21:58:16.418Z,9.20
2022-12-11T22:00:45.496Z,9.17
2022-12-11T22:03:12.213Z,10.90
2022-12-11T22:05:39.005Z,9.83
2022-12-11T22:08:05.926Z,10.60
2022-12-11T22:10:32.778Z,10.83
2022-12-11T22:12:59.654Z,9.13
2022-12-11T22:15:26.384Z,9.53
2022-12-11T22:17:53.011Z,9.43
2022-12-11T22:20:19.819Z,9.50
2022-12-11T22:22:46.891Z,9.70
2022-12-11T22:25:14.135Z,9.30
2022-12-11T22:27:40.923Z,10.17
2022-12-11T22:30:08.419Z,9.80
2022-12-11T22:32:35.290Z,9.23
2022-12-11T22:35:02.065Z,9.33
2022-12-11T22:37:29.766Z,9.87
2022-12-11T22:39:56.570Z,9.33
2022-12-11T22:42:23.390Z,10.57
2022-12-11T22:44:50.104Z,11.47
2022-12-11T22:47:16.830Z,9.40
2022-12-11T22:49:43.527Z,8.50
2022-12-11T22:52:10.454Z,11.40
2022-12-11T22:54:41.865Z,9.40
2022-12-11T22:57:09.076Z,12.87
2022-12-11T22:59:36.584Z,12.30
2022-12-11T23:02:03.850Z,10.40
2022-12-11T23:04:30.929Z,11.90
2022-12-11T23:06:58.539Z,10.60
2022-12-11T23:09:28.963Z,9.90
2022-12-11T23:11:58.859Z,10.67
2022-12-11T23:14:26.072Z,10.93
2022-12-11T23:16:52.967Z,10.60
2022-12-11T23:19:25.331Z,12.53
2022-12-11T23:21:53.028Z,10.93
2022-12-11T23:24:19.900Z,10.13
2022-12-11T23:26:48.250Z,13.37
2022-12-11T23:29:15.400Z,13.60
2022-12-11T23:31:42.415Z,12.00
2022-12-11T23:34:09.325Z,12.40
2022-12-11T23:36:36.183Z,9.77
2022-12-11T23:39:03.657Z,10.17
2022-12-11T23:41:30.492Z,10.83
2022-12-11T23:43:57.334Z,8.77
2022-12-11T23:46:25.281Z,10.37
2022-12-11T23:48:53.129Z,11.10
2022-12-11T23:51:22.137Z,10.70
2022-12-11T23:53:49.619Z,10.67
2022-12-11T23:56:19.744Z,9.90
2022-12-11T23:58:49.170Z,9.40
